Sodus, Michigan
Current Conditions -  °F | °C
As of 2:19 PM on Thursday 27 Nov 2014 (Local Time) from KBEH Reporting Station
Light Snow Light Snow  
Wind Chill: 20°   Ceiling: 2300
Heat Index: 29°   Visibility: 2.5mi
Dew Point: 23°   Wind: 9mph
Humidity: 78%   Direction: 310°NW
Pressure: 30.27"   Gusts: 20mph
Location:  42.04°N, 86.37°W
Report Text: KBEH 271919Z AUTO 31008G17KT 2 1/2SM -SN FEW018 BKN023 OVC030 M02/M05 A3027 RMK AO2 VIS 1 1/4V5 P0000 T10171050
Loading
Personal Weather Stations






























Interactive Weather Map New forecast layout! Learn more

10-Day Weather Forecast

Advertisements
Track Severe Weather on mobile